Terminal Aerodrome Forecast
Issued by NWS

Current Version | Previous Version | Text Only | Print | Product List | Glossary On
Versions: 1 2 3 4 5 6 7 8 9 10 11 12 13 14
000
FTUS45 KPSR 211258 AAA
TAFBLH
TAF AMD
KBLH 211258Z 2113/2212 VRB04KT P6SM SKC
     FM211700 17011G19KT P6SM FEW250
     FM220200 22009KT P6SM FEW080=

USA.gov is the U.S. government's official web portal to all federal, state and local government web resources and services.